Time;durP1;ratioP1;P1;durP2;ratioP2;P2;SDS_P1;SDS_P2;PMS_P1;PMS_P2;Temp;Humidity;BMP_temperature;BMP_pressure;BME280_temperature;BME280_humidity;BME280_pressure;Samples;Min_cycle;Max_cycle;Signal;HPM_P1;HPM_P2
2022/08/08 00:00:12;;;;;;;;;3.33;3.00;;;;;;;;5072576;28;51325;-61
2022/08/08 00:03:15;;;;;;;;;4.33;4.33;;;;;;;;5072594;27;51104;-61
2022/08/08 00:05:43;;;;;;;;;5.00;5.00;;;;;;;;5049631;28;51215;-61
2022/08/08 00:08:23;;;;;;;;;6.00;5.00;;;;;;;;5050753;28;51075;-61
2022/08/08 00:11:06;;;;;;;;;3.00;3.00;;;;;;;;5062721;28;51172;-60
2022/08/08 00:13:38;;;;;;;;;3.67;3.67;;;;;;;;5071893;27;52165;-61
2022/08/08 00:16:06;;;;;;;;;3.00;2.00;;;;;;;;5071642;27;50909;-60
2022/08/08 00:18:48;;;;;;;;;6.00;4.33;;;;;;;;5072014;28;51238;-60
2022/08/08 00:21:16;;;;;;;;;4.33;4.33;;;;;;;;5071816;28;51031;-60
2022/08/08 00:23:43;;;;;;;;;2.00;2.00;;;;;;;;5071471;28;53094;-60
2022/08/08 00:26:11;;;;;;;;;4.00;3.00;;;;;;;;5072052;28;51109;-61
2022/08/08 00:28:40;;;;;;;;;4.33;4.00;;;;;;;;5070144;28;50954;-59
2022/08/08 00:31:12;;;;;;;;;5.00;5.00;;;;;;;;5071947;28;51029;-59
2022/08/08 00:33:43;;;;;;;;;4.00;3.33;;;;;;;;5072977;27;51015;-61
2022/08/08 00:36:14;;;;;;;;;5.00;4.00;;;;;;;;5075000;28;50987;-61
2022/08/08 00:38:57;;;;;;;;;3.00;3.00;;;;;;;;5075370;28;51064;-61
2022/08/08 00:41:31;;;;;;;;;5.00;4.00;;;;;;;;5075361;27;51931;-61
2022/08/08 00:44:15;;;;;;;;;4.00;4.00;;;;;;;;5074882;28;51795;-60
2022/08/08 00:47:12;;;;;;;;;5.00;4.00;;;;;;;;5075156;27;50931;-60
2022/08/08 00:49:52;;;;;;;;;3.67;3.67;;;;;;;;5075433;27;50905;-60
2022/08/08 00:52:29;;;;;;;;;5.67;5.00;;;;;;;;5075774;28;50923;-64
2022/08/08 00:55:14;;;;;;;;;5.00;5.00;;;;;;;;5074593;27;50995;-60
2022/08/08 00:57:45;;;;;;;;;5.00;4.33;;;;;;;;5074507;27;50980;-59
2022/08/08 01:00:13;;;;;;;;;6.00;6.00;;;;;;;;5074903;28;51072;-60
2022/08/08 01:02:50;;;;;;;;;5.00;5.00;;;;;;;;5074786;28;51192;-59
2022/08/08 01:05:16;;;;;;;;;4.67;4.67;;;;;;;;5074166;27;51231;-60
2022/08/08 01:07:44;;;;;;;;;6.00;6.00;;;;;;;;5074426;28;50903;-59
2022/08/08 01:10:28;;;;;;;;;5.33;5.33;;;;;;;;5074903;28;50957;-60
2022/08/08 01:13:06;;;;;;;;;6.00;5.00;;;;;;;;5074934;28;50882;-59
2022/08/08 01:15:31;;;;;;;;;4.50;4.00;;;;;;;;5073964;28;52148;-61
2022/08/08 01:17:57;;;;;;;;;4.67;4.00;;;;;;;;5074598;28;50993;-60
2022/08/08 01:20:42;;;;;;;;;5.00;5.00;;;;;;;;5074751;28;51258;-60
2022/08/08 01:23:07;;;;;;;;;5.00;4.67;;;;;;;;5053317;28;51177;-61
2022/08/08 01:25:38;;;;;;;;;6.33;5.00;;;;;;;;5071615;28;51272;-60
2022/08/08 01:28:10;;;;;;;;;3.67;3.67;;;;;;;;5074770;28;51124;-61
2022/08/08 01:30:54;;;;;;;;;4.33;4.33;;;;;;;;5074552;28;51005;-60
2022/08/08 01:33:31;;;;;;;;;5.00;4.67;;;;;;;;5075335;27;51195;-61
2022/08/08 01:36:15;;;;;;;;;6.00;5.33;;;;;;;;5075040;28;51202;-61
2022/08/08 01:38:49;;;;;;;;;6.33;5.00;;;;;;;;5074725;27;51056;-61
2022/08/08 01:41:32;;;;;;;;;6.67;6.00;;;;;;;;5074526;28;51116;-61
2022/08/08 01:44:00;;;;;;;;;6.00;6.00;;;;;;;;5076350;28;51077;-60
2022/08/08 01:46:38;;;;;;;;;6.00;5.33;;;;;;;;5073384;28;51435;-61
2022/08/08 01:49:22;;;;;;;;;4.00;4.00;;;;;;;;5074647;28;50948;-61
2022/08/08 01:52:10;;;;;;;;;5.00;5.00;;;;;;;;5075287;27;50881;-61
2022/08/08 01:54:49;;;;;;;;;6.33;5.67;;;;;;;;5065173;27;52031;-61
2022/08/08 01:57:24;;;;;;;;;5.00;5.00;;;;;;;;5074027;28;53374;-61
2022/08/08 02:00:08;;;;;;;;;7.00;7.00;;;;;;;;5074224;28;51082;-61
2022/08/08 02:02:45;;;;;;;;;6.00;5.67;;;;;;;;5067718;28;51021;-60
2022/08/08 02:05:20;;;;;;;;;6.00;5.67;;;;;;;;5073062;28;50922;-59
2022/08/08 02:07:58;;;;;;;;;6.00;5.00;;;;;;;;5072117;28;53497;-59
2022/08/08 02:10:31;;;;;;;;;5.33;5.33;;;;;;;;5074878;28;50925;-61
2022/08/08 02:13:00;;;;;;;;;5.00;5.00;;;;;;;;5073141;28;50980;-61
2022/08/08 02:15:31;;;;;;;;;6.00;6.00;;;;;;;;5074413;28;50981;-61
2022/08/08 02:18:03;;;;;;;;;7.00;6.00;;;;;;;;5060673;28;52155;-61
2022/08/08 02:20:28;;;;;;;;;6.67;6.33;;;;;;;;5073735;28;51099;-59
2022/08/08 02:23:19;;;;;;;;;5.33;5.33;;;;;;;;5074031;28;51078;-60
2022/08/08 02:25:57;;;;;;;;;8.00;7.00;;;;;;;;5074600;27;51919;-60
2022/08/08 02:28:41;;;;;;;;;5.50;5.25;;;;;;;;5072903;28;53139;-60
2022/08/08 02:31:35;;;;;;;;;5.67;5.67;;;;;;;;5073796;27;51009;-60
2022/08/08 02:34:14;;;;;;;;;6.33;6.33;;;;;;;;5058669;28;51235;-60
2022/08/08 02:37:00;;;;;;;;;7.00;7.00;;;;;;;;5073479;28;51231;-60
2022/08/08 02:39:42;;;;;;;;;7.67;7.00;;;;;;;;5073079;28;51267;-60
2022/08/08 02:42:26;;;;;;;;;6.67;6.67;;;;;;;;5072366;28;50896;-60
2022/08/08 02:45:13;;;;;;;;;6.00;5.33;;;;;;;;5073464;27;50968;-61
2022/08/08 02:47:47;;;;;;;;;7.33;6.67;;;;;;;;5073674;27;51215;-60
2022/08/08 02:50:12;;;;;;;;;6.67;6.33;;;;;;;;5072935;27;51801;-61
2022/08/08 02:52:47;;;;;;;;;7.00;7.00;;;;;;;;5073271;27;51020;-60
2022/08/08 02:55:15;;;;;;;;;7.00;7.00;;;;;;;;5060225;28;51206;-60
2022/08/08 02:57:40;;;;;;;;;8.00;8.00;;;;;;;;5073263;28;51008;-60
2022/08/08 03:00:14;;;;;;;;;6.33;6.00;;;;;;;;5073459;28;52213;-61
2022/08/08 03:02:59;;;;;;;;;6.67;6.33;;;;;;;;5068048;28;51173;-60
2022/08/08 03:05:51;;;;;;;;;7.67;7.33;;;;;;;;5072997;28;50917;-60
2022/08/08 03:08:26;;;;;;;;;7.00;6.33;;;;;;;;5073250;27;51052;-60
2022/08/08 03:11:10;;;;;;;;;7.33;7.00;;;;;;;;5071466;28;52313;-60
2022/08/08 03:13:44;;;;;;;;;8.00;8.00;;;;;;;;5073535;27;50874;-61
2022/08/08 03:16:20;;;;;;;;;6.00;6.00;;;;;;;;5073616;28;50981;-60
2022/08/08 03:18:48;;;;;;;;;9.00;9.00;;;;;;;;5073965;28;50878;-61
2022/08/08 03:21:13;;;;;;;;;8.67;8.33;;;;;;;;5072577;28;52311;-61
2022/08/08 03:23:38;;;;;;;;;7.50;7.25;;;;;;;;5072783;28;51164;-60
2022/08/08 03:26:04;;;;;;;;;8.00;8.00;;;;;;;;5073021;28;51233;-60
2022/08/08 03:28:31;;;;;;;;;8.00;8.00;;;;;;;;5072868;28;51375;-60
2022/08/08 03:30:56;;;;;;;;;9.00;8.25;;;;;;;;5072440;28;52456;-60
2022/08/08 03:33:22;;;;;;;;;7.67;7.67;;;;;;;;5071091;28;50977;-60
2022/08/08 03:35:48;;;;;;;;;7.33;7.33;;;;;;;;5072689;28;51068;-61
2022/08/08 03:38:14;;;;;;;;;6.67;6.67;;;;;;;;5072967;28;51271;-61
2022/08/08 03:40:40;;;;;;;;;9.00;8.00;;;;;;;;5072135;27;51000;-60
2022/08/08 03:43:09;;;;;;;;;10.33;9.67;;;;;;;;5072520;28;50980;-60
2022/08/08 03:45:35;;;;;;;;;12.00;10.67;;;;;;;;5072596;28;50975;-61
2022/08/08 03:48:04;;;;;;;;;8.67;8.67;;;;;;;;5072620;28;51351;-59
2022/08/08 03:50:33;;;;;;;;;9.33;9.33;;;;;;;;5072146;28;53010;-60
2022/08/08 03:53:05;;;;;;;;;9.00;8.67;;;;;;;;5072293;28;51210;-61
2022/08/08 03:55:30;;;;;;;;;7.00;7.00;;;;;;;;5072316;28;50963;-61
2022/08/08 03:57:56;;;;;;;;;7.67;7.00;;;;;;;;5072652;28;50800;-61
2022/08/08 04:00:23;;;;;;;;;7.00;7.00;;;;;;;;5072478;28;52921;-61
2022/08/08 04:02:55;;;;;;;;;8.00;8.00;;;;;;;;5072907;28;51242;-61
2022/08/08 04:05:20;;;;;;;;;8.00;7.00;;;;;;;;5072256;28;51084;-61
2022/08/08 04:07:46;;;;;;;;;8.00;8.00;;;;;;;;5072962;28;51236;-61
2022/08/08 04:10:11;;;;;;;;;8.00;8.00;;;;;;;;5077627;28;52264;-61
2022/08/08 04:12:36;;;;;;;;;9.67;9.67;;;;;;;;5076335;28;51031;-61
2022/08/08 04:15:03;;;;;;;;;8.00;8.00;;;;;;;;5076183;28;50938;-61
2022/08/08 04:17:28;;;;;;;;;6.67;6.67;;;;;;;;5074594;28;51010;-61
2022/08/08 04:19:55;;;;;;;;;8.00;8.00;;;;;;;;5074049;28;52203;-60
2022/08/08 04:22:20;;;;;;;;;8.00;8.00;;;;;;;;5076077;28;51023;-61
2022/08/08 04:24:45;;;;;;;;;7.33;7.33;;;;;;;;5077487;28;51304;-61
2022/08/08 04:27:10;;;;;;;;;7.67;7.33;;;;;;;;5077595;28;50756;-61
2022/08/08 04:29:36;;;;;;;;;9.00;7.00;;;;;;;;5077491;28;50997;-61
2022/08/08 04:32:01;;;;;;;;;9.00;9.00;;;;;;;;5077388;28;51108;-60
2022/08/08 04:34:27;;;;;;;;;7.00;7.00;;;;;;;;5077475;28;50809;-61
2022/08/08 04:36:52;;;;;;;;;9.50;9.50;;;;;;;;5076562;28;50826;-60
2022/08/08 04:39:17;;;;;;;;;9.33;9.00;;;;;;;;5075675;28;51893;-60
2022/08/08 04:41:42;;;;;;;;;9.00;8.67;;;;;;;;5075994;28;51081;-60
2022/08/08 04:44:08;;;;;;;;;10.00;10.00;;;;;;;;5075971;28;50952;-61
2022/08/08 04:46:33;;;;;;;;;10.75;9.75;;;;;;;;5074787;28;51250;-61
2022/08/08 04:48:58;;;;;;;;;10.00;9.67;;;;;;;;5075512;28;52201;-60
2022/08/08 04:51:23;;;;;;;;;7.00;7.00;;;;;;;;5075213;28;50892;-61
2022/08/08 04:53:49;;;;;;;;;9.67;9.33;;;;;;;;5075995;28;50878;-60
2022/08/08 04:56:16;;;;;;;;;12.25;12.00;;;;;;;;5076905;28;51233;-60
2022/08/08 04:58:41;;;;;;;;;11.50;11.50;;;;;;;;5076770;27;51908;-61
2022/08/08 05:01:07;;;;;;;;;11.00;10.50;;;;;;;;5075544;28;51116;-60
2022/08/08 05:03:32;;;;;;;;;11.00;10.00;;;;;;;;5075705;28;51200;-61
2022/08/08 05:05:57;;;;;;;;;9.75;8.25;;;;;;;;5074731;28;51317;-61
2022/08/08 05:08:25;;;;;;;;;10.50;10.00;;;;;;;;5074835;28;52107;-60
2022/08/08 05:10:50;;;;;;;;;10.50;10.00;;;;;;;;5074928;28;51012;-60
2022/08/08 05:13:15;;;;;;;;;10.00;10.00;;;;;;;;5075130;28;50911;-61
2022/08/08 05:15:40;;;;;;;;;10.00;10.00;;;;;;;;5075164;28;51330;-60
2022/08/08 05:18:06;;;;;;;;;8.33;6.67;;;;;;;;5074492;27;51173;-60
2022/08/08 05:20:31;;;;;;;;;8.33;8.33;;;;;;;;5073035;28;51333;-61
2022/08/08 05:22:56;;;;;;;;;8.67;8.00;;;;;;;;5074731;28;51021;-60
2022/08/08 05:25:21;;;;;;;;;12.75;10.75;;;;;;;;5074835;28;50914;-60
2022/08/08 05:27:47;;;;;;;;;10.50;9.75;;;;;;;;5074581;28;51044;-60
2022/08/08 05:30:12;;;;;;;;;13.00;10.33;;;;;;;;5074594;28;50944;-60
2022/08/08 05:32:37;;;;;;;;;10.00;9.33;;;;;;;;5073413;28;50909;-61
2022/08/08 05:35:03;;;;;;;;;10.67;9.33;;;;;;;;5073502;28;51036;-61
2022/08/08 05:37:30;;;;;;;;;11.67;10.00;;;;;;;;5074330;28;51214;-60
2022/08/08 05:39:59;;;;;;;;;10.33;9.67;;;;;;;;5074626;28;52477;-60
2022/08/08 05:42:32;;;;;;;;;9.00;9.00;;;;;;;;5074987;28;51054;-60
2022/08/08 05:45:00;;;;;;;;;10.00;9.67;;;;;;;;5074470;28;50943;-60
2022/08/08 05:47:26;;;;;;;;;9.67;9.67;;;;;;;;5074157;28;52016;-61
2022/08/08 05:49:51;;;;;;;;;10.33;9.00;;;;;;;;5074288;27;50809;-61
2022/08/08 05:52:16;;;;;;;;;12.00;9.33;;;;;;;;5074190;28;51136;-61
2022/08/08 05:54:41;;;;;;;;;11.33;10.00;;;;;;;;5074247;27;51349;-60
2022/08/08 05:57:13;;;;;;;;;9.33;8.67;;;;;;;;5074306;28;52248;-61
2022/08/08 05:59:40;;;;;;;;;9.00;9.00;;;;;;;;5074069;28;51065;-61
2022/08/08 06:03:09;;;;;;;;;10.67;10.00;;;;;;;;5073809;28;50866;-60
2022/08/08 06:04:57;;;;;;;;;7.00;7.00;;;;;;;;5073903;27;51001;-61
2022/08/08 06:07:22;;;;;;;;;7.67;7.00;;;;;;;;5073301;28;51114;-60
2022/08/08 06:09:47;;;;;;;;;11.00;10.00;;;;;;;;5074063;28;51024;-61
2022/08/08 06:12:13;;;;;;;;;8.00;8.00;;;;;;;;5074093;28;51033;-61
2022/08/08 06:14:38;;;;;;;;;9.00;9.00;;;;;;;;5074350;28;51135;-59
2022/08/08 06:17:05;;;;;;;;;9.33;9.00;;;;;;;;5073730;28;50980;-60
2022/08/08 06:19:31;;;;;;;;;9.33;9.00;;;;;;;;5073945;27;51183;-61
2022/08/08 06:21:57;;;;;;;;;9.00;9.00;;;;;;;;5073775;28;50828;-61
2022/08/08 06:24:22;;;;;;;;;10.00;10.00;;;;;;;;5074364;28;50905;-61
2022/08/08 06:26:56;;;;;;;;;10.33;9.33;;;;;;;;5074201;28;50867;-60
2022/08/08 06:29:25;;;;;;;;;11.67;10.33;;;;;;;;5072581;28;51096;-61
2022/08/08 06:31:52;;;;;;;;;8.00;8.00;;;;;;;;5072951;27;50974;-60
2022/08/08 06:34:18;;;;;;;;;8.00;8.00;;;;;;;;5073879;28;51153;-60
2022/08/08 06:36:44;;;;;;;;;8.00;7.33;;;;;;;;5072797;28;52185;-61
2022/08/08 06:39:10;;;;;;;;;9.00;9.00;;;;;;;;5072068;28;51009;-60
2022/08/08 06:41:40;;;;;;;;;10.00;9.00;;;;;;;;5073210;27;50953;-59
2022/08/08 06:44:08;;;;;;;;;11.00;10.00;;;;;;;;5073475;27;51163;-59
2022/08/08 06:46:33;;;;;;;;;9.33;8.67;;;;;;;;5072938;28;51085;-60
2022/08/08 06:48:59;;;;;;;;;10.00;10.00;;;;;;;;5073399;28;51061;-62
2022/08/08 06:51:24;;;;;;;;;10.33;10.00;;;;;;;;5073158;28;51211;-60
2022/08/08 06:53:50;;;;;;;;;8.00;7.00;;;;;;;;5073533;27;51018;-60
2022/08/08 06:56:15;;;;;;;;;9.00;8.33;;;;;;;;5072848;28;52077;-60
2022/08/08 06:58:40;;;;;;;;;8.00;8.00;;;;;;;;5071999;28;51059;-60
2022/08/08 07:01:12;;;;;;;;;8.00;8.00;;;;;;;;5073936;28;51365;-60
2022/08/08 07:04:03;;;;;;;;;9.67;9.33;;;;;;;;5074746;27;51216;-60
2022/08/08 07:06:32;;;;;;;;;8.00;8.00;;;;;;;;5057854;28;52417;-61
2022/08/08 07:09:00;;;;;;;;;9.00;9.00;;;;;;;;5073131;27;51056;-61
2022/08/08 07:11:28;;;;;;;;;8.00;8.00;;;;;;;;5073477;28;51059;-61
2022/08/08 07:13:57;;;;;;;;;8.33;7.00;;;;;;;;5072496;28;51223;-61
2022/08/08 07:16:27;;;;;;;;;8.00;7.67;;;;;;;;5073461;28;52398;-61
2022/08/08 07:19:05;;;;;;;;;8.00;8.00;;;;;;;;5071520;28;50915;-61
2022/08/08 07:21:35;;;;;;;;;7.67;7.67;;;;;;;;5072164;28;51105;-60
2022/08/08 07:24:03;;;;;;;;;6.33;6.33;;;;;;;;5073068;28;51440;-61
2022/08/08 07:26:31;;;;;;;;;6.67;6.33;;;;;;;;5072982;28;51139;-61
2022/08/08 07:28:56;;;;;;;;;7.00;7.00;;;;;;;;5072570;28;51133;-61
2022/08/08 07:31:22;;;;;;;;;9.67;9.67;;;;;;;;5072844;28;50927;-61
2022/08/08 07:33:48;;;;;;;;;5.67;5.67;;;;;;;;5072901;28;50996;-62
2022/08/08 07:36:13;;;;;;;;;7.67;6.33;;;;;;;;5072549;28;51039;-61
2022/08/08 07:38:40;;;;;;;;;5.33;5.00;;;;;;;;5072557;27;51189;-61
2022/08/08 07:41:06;;;;;;;;;6.67;6.67;;;;;;;;5073054;28;51037;-61
2022/08/08 07:43:32;;;;;;;;;6.67;6.33;;;;;;;;5071999;28;51268;-61
2022/08/08 07:45:57;;;;;;;;;7.00;7.00;;;;;;;;5072521;28;50860;-60
2022/08/08 07:48:31;;;;;;;;;7.00;7.00;;;;;;;;5072606;28;51149;-61
2022/08/08 07:50:59;;;;;;;;;5.67;5.00;;;;;;;;5072741;28;50877;-61
2022/08/08 07:53:30;;;;;;;;;6.00;6.00;;;;;;;;5072398;27;51136;-60
2022/08/08 07:55:59;;;;;;;;;6.67;6.67;;;;;;;;5072103;28;52308;-60
2022/08/08 07:58:35;;;;;;;;;8.00;7.00;;;;;;;;5072372;27;50913;-60
2022/08/08 08:01:04;;;;;;;;;7.00;6.00;;;;;;;;5072106;28;51088;-59
2022/08/08 08:03:41;;;;;;;;;5.00;5.00;;;;;;;;5072333;28;51023;-60
2022/08/08 08:06:07;;;;;;;;;9.00;9.00;;;;;;;;5071314;27;51066;-60
2022/08/08 08:08:40;;;;;;;;;6.67;6.67;;;;;;;;5071987;28;51013;-61
2022/08/08 08:11:12;;;;;;;;;5.33;5.33;;;;;;;;5072327;28;50993;-61
2022/08/08 08:13:52;;;;;;;;;4.67;4.67;;;;;;;;5072372;28;51295;-59
2022/08/08 08:16:20;;;;;;;;;6.67;6.67;;;;;;;;5071856;28;51040;-60
2022/08/08 08:18:51;;;;;;;;;6.00;6.00;;;;;;;;5071984;28;51032;-60
2022/08/08 08:21:18;;;;;;;;;6.33;6.33;;;;;;;;5071360;28;51225;-60
2022/08/08 08:23:43;;;;;;;;;7.67;6.67;;;;;;;;5071918;28;50911;-59
2022/08/08 08:26:10;;;;;;;;;7.00;7.00;;;;;;;;5071967;27;51847;-59
2022/08/08 08:28:35;;;;;;;;;5.00;5.00;;;;;;;;5071938;28;51064;-60
2022/08/08 08:31:03;;;;;;;;;5.00;5.00;;;;;;;;5072569;28;50869;-61
2022/08/08 08:33:29;;;;;;;;;7.33;7.00;;;;;;;;5072044;28;50906;-61
2022/08/08 08:35:54;;;;;;;;;5.00;5.00;;;;;;;;5069952;28;51100;-60
2022/08/08 08:38:19;;;;;;;;;6.33;6.33;;;;;;;;5071534;28;51127;-60
2022/08/08 08:40:44;;;;;;;;;5.00;5.00;;;;;;;;5071878;28;51250;-59
2022/08/08 08:43:10;;;;;;;;;5.67;5.67;;;;;;;;5071787;28;50995;-59
2022/08/08 08:45:36;;;;;;;;;5.33;5.00;;;;;;;;5071604;28;52519;-60
2022/08/08 08:48:02;;;;;;;;;6.00;6.00;;;;;;;;5071593;28;50864;-60
2022/08/08 08:50:29;;;;;;;;;6.33;6.00;;;;;;;;5071356;28;51086;-59
2022/08/08 08:52:55;;;;;;;;;7.00;6.00;;;;;;;;5071965;28;50981;-60
2022/08/08 08:55:21;;;;;;;;;5.00;5.00;;;;;;;;5073674;28;52249;-60
2022/08/08 08:57:48;;;;;;;;;5.00;5.00;;;;;;;;5074815;28;50858;-59
2022/08/08 09:00:14;;;;;;;;;5.00;5.00;;;;;;;;5075078;28;51121;-60
2022/08/08 09:02:40;;;;;;;;;5.00;5.00;;;;;;;;5073478;28;51274;-60
2022/08/08 09:05:09;;;;;;;;;5.33;5.33;;;;;;;;5074112;27;52604;-59
2022/08/08 09:07:35;;;;;;;;;5.67;5.67;;;;;;;;5056663;28;51004;-60
2022/08/08 09:10:00;;;;;;;;;6.67;6.33;;;;;;;;5075234;28;50938;-59
2022/08/08 09:12:26;;;;;;;;;5.00;5.00;;;;;;;;5075052;28;51300;-60
2022/08/08 09:14:53;;;;;;;;;5.00;5.00;;;;;;;;5074776;28;52098;-60
2022/08/08 09:17:18;;;;;;;;;2.00;2.00;;;;;;;;5074468;28;51011;-60
2022/08/08 09:19:52;;;;;;;;;6.67;6.00;;;;;;;;5075081;28;51104;-60
2022/08/08 09:22:19;;;;;;;;;6.00;6.00;;;;;;;;5074648;27;50984;-60
2022/08/08 09:24:44;;;;;;;;;6.00;6.00;;;;;;;;5072940;28;51764;-60
2022/08/08 09:27:11;;;;;;;;;5.00;5.00;;;;;;;;5074209;28;50916;-60
2022/08/08 09:29:48;;;;;;;;;5.67;5.00;;;;;;;;5074351;28;51099;-59
2022/08/08 09:32:15;;;;;;;;;5.33;5.33;;;;;;;;5072739;28;51444;-59
2022/08/08 09:34:42;;;;;;;;;4.00;4.00;;;;;;;;5072530;28;52235;-60
2022/08/08 09:37:08;;;;;;;;;6.67;6.00;;;;;;;;5073438;28;50961;-60
2022/08/08 09:39:56;;;;;;;;;4.00;4.00;;;;;;;;5073921;28;51095;-60
2022/08/08 09:42:27;;;;;;;;;4.33;4.33;;;;;;;;5074569;27;51346;-61
2022/08/08 09:45:01;;;;;;;;;4.33;4.33;;;;;;;;5074356;28;51019;-60
2022/08/08 09:47:30;;;;;;;;;5.00;5.00;;;;;;;;5074556;28;51061;-60
2022/08/08 09:49:57;;;;;;;;;5.00;5.00;;;;;;;;5074478;28;51069;-61
2022/08/08 09:52:28;;;;;;;;;5.00;4.67;;;;;;;;5074445;28;50830;-62
2022/08/08 09:54:54;;;;;;;;;3.00;3.00;;;;;;;;5074804;28;52051;-59
2022/08/08 09:57:27;;;;;;;;;6.33;5.00;;;;;;;;5074235;28;51206;-60
2022/08/08 09:59:55;;;;;;;;;4.00;4.00;;;;;;;;5074290;27;51184;-62
2022/08/08 10:02:23;;;;;;;;;3.67;3.67;;;;;;;;5073303;28;51512;-60
2022/08/08 10:04:49;;;;;;;;;4.33;4.33;;;;;;;;5074205;27;51086;-61
2022/08/08 10:07:15;;;;;;;;;4.33;4.33;;;;;;;;5073640;28;50994;-61
2022/08/08 10:09:42;;;;;;;;;4.67;4.67;;;;;;;;5073501;28;50930;-60
2022/08/08 10:12:08;;;;;;;;;6.33;5.33;;;;;;;;5074516;28;51147;-60
2022/08/08 10:14:34;;;;;;;;;5.00;4.33;;;;;;;;5073320;28;54040;-60
2022/08/08 10:17:09;;;;;;;;;4.00;4.00;;;;;;;;5074501;27;50988;-59
2022/08/08 10:19:38;;;;;;;;;5.00;5.00;;;;;;;;5072744;28;51024;-60
2022/08/08 10:22:04;;;;;;;;;5.00;5.00;;;;;;;;5073305;28;51219;-60
2022/08/08 10:24:29;;;;;;;;;5.00;5.00;;;;;;;;5072301;28;51518;-60
2022/08/08 10:26:58;;;;;;;;;5.00;5.00;;;;;;;;5074452;28;50915;-59
2022/08/08 10:29:48;;;;;;;;;7.33;7.33;;;;;;;;5073997;28;51107;-60
2022/08/08 10:32:31;;;;;;;;;6.33;6.33;;;;;;;;5072593;28;51315;-60
2022/08/08 10:35:00;;;;;;;;;6.67;6.67;;;;;;;;5072174;28;51027;-59
2022/08/08 10:37:30;;;;;;;;;5.00;5.00;;;;;;;;5073384;28;50998;-61
2022/08/08 10:39:57;;;;;;;;;4.00;4.00;;;;;;;;5073757;27;51163;-60
2022/08/08 10:42:23;;;;;;;;;6.00;6.00;;;;;;;;5072247;28;51070;-59
2022/08/08 10:44:49;;;;;;;;;8.33;7.33;;;;;;;;5073180;28;52003;-60
2022/08/08 10:47:14;;;;;;;;;6.67;6.67;;;;;;;;5073247;27;51042;-59
2022/08/08 10:49:40;;;;;;;;;4.67;4.67;;;;;;;;5073839;27;50927;-60
2022/08/08 10:52:05;;;;;;;;;4.33;4.00;;;;;;;;5073021;27;50930;-60
2022/08/08 10:54:31;;;;;;;;;5.67;5.67;;;;;;;;5072871;27;52105;-61
2022/08/08 10:57:00;;;;;;;;;6.00;6.00;;;;;;;;5073136;27;51048;-63
2022/08/08 10:59:26;;;;;;;;;5.00;5.00;;;;;;;;5072994;28;51124;-61
2022/08/08 11:01:51;;;;;;;;;3.67;3.00;;;;;;;;5072989;28;51058;-60
2022/08/08 11:04:23;;;;;;;;;7.00;7.00;;;;;;;;5072956;27;51107;-63
2022/08/08 11:07:00;;;;;;;;;8.00;8.00;;;;;;;;5071599;28;51062;-61
2022/08/08 11:09:25;;;;;;;;;6.00;6.00;;;;;;;;5072953;28;50918;-61
2022/08/08 11:11:51;;;;;;;;;4.00;4.00;;;;;;;;5073162;28;50918;-61
2022/08/08 11:14:16;;;;;;;;;3.00;3.00;;;;;;;;5072512;27;52901;-60
2022/08/08 11:16:44;;;;;;;;;4.33;4.33;;;;;;;;5072660;27;50930;-60
2022/08/08 11:19:09;;;;;;;;;4.00;4.00;;;;;;;;5071146;28;50893;-61
2022/08/08 11:21:39;;;;;;;;;5.00;5.00;;;;;;;;5072534;28;50907;-60
2022/08/08 11:24:05;;;;;;;;;6.67;6.67;;;;;;;;5072239;28;51903;-59
2022/08/08 11:26:32;;;;;;;;;5.33;5.33;;;;;;;;5072323;27;51047;-61
2022/08/08 11:29:02;;;;;;;;;6.33;5.33;;;;;;;;5061446;27;51178;-60
2022/08/08 11:31:31;;;;;;;;;4.33;4.00;;;;;;;;5072899;27;51100;-60
2022/08/08 11:33:58;;;;;;;;;7.33;6.00;;;;;;;;5070545;28;51220;-61
2022/08/08 11:36:23;;;;;;;;;4.00;4.00;;;;;;;;5072242;27;50874;-60
2022/08/08 11:38:49;;;;;;;;;4.67;4.00;;;;;;;;5072197;27;50899;-61
2022/08/08 11:41:15;;;;;;;;;4.67;4.00;;;;;;;;5072574;27;51258;-60
2022/08/08 11:43:41;;;;;;;;;4.33;3.67;;;;;;;;5072340;28;52408;-61
2022/08/08 11:46:07;;;;;;;;;4.00;4.00;;;;;;;;5071191;28;50918;-61
2022/08/08 11:48:35;;;;;;;;;1.00;1.00;;;;;;;;5073008;27;50961;-61
2022/08/08 11:51:01;;;;;;;;;3.33;3.33;;;;;;;;5072757;27;51243;-61
2022/08/08 11:53:26;;;;;;;;;4.67;4.67;;;;;;;;5072387;27;51528;-60
2022/08/08 11:55:51;;;;;;;;;4.33;4.00;;;;;;;;5070715;28;51051;-60
2022/08/08 11:58:17;;;;;;;;;4.00;3.00;;;;;;;;5072824;28;50923;-62
2022/08/08 12:00:47;;;;;;;;;4.00;4.00;;;;;;;;5072806;28;51408;-61
2022/08/08 12:03:20;;;;;;;;;3.00;3.00;;;;;;;;5072591;27;51844;-62
2022/08/08 12:05:46;;;;;;;;;5.00;5.00;;;;;;;;5070719;28;51110;-61
2022/08/08 12:08:11;;;;;;;;;3.00;3.00;;;;;;;;5072250;27;50996;-61
2022/08/08 12:10:45;;;;;;;;;3.00;3.00;;;;;;;;5073095;28;51103;-61
2022/08/08 12:13:13;;;;;;;;;5.00;5.00;;;;;;;;5071509;28;52035;-60
2022/08/08 12:15:39;;;;;;;;;6.00;6.00;;;;;;;;5070143;28;51162;-60
2022/08/08 12:18:11;;;;;;;;;3.67;3.67;;;;;;;;5071819;27;50946;-62
2022/08/08 12:20:38;;;;;;;;;4.00;4.00;;;;;;;;5071241;28;51002;-61
2022/08/08 12:23:03;;;;;;;;;2.00;2.00;;;;;;;;5071643;27;53739;-61
2022/08/08 12:25:32;;;;;;;;;2.67;2.67;;;;;;;;5071631;28;50948;-60
2022/08/08 12:28:15;;;;;;;;;4.67;4.33;;;;;;;;5070342;28;50999;-59
2022/08/08 12:30:42;;;;;;;;;4.00;3.33;;;;;;;;5074719;28;50955;-62
2022/08/08 12:33:23;;;;;;;;;2.00;2.00;;;;;;;;5074779;28;51872;-60
2022/08/08 12:35:48;;;;;;;;;4.00;4.00;;;;;;;;5074098;28;51148;-61
2022/08/08 12:38:14;;;;;;;;;5.67;5.00;;;;;;;;5074623;28;50890;-60
2022/08/08 12:40:39;;;;;;;;;4.00;4.00;;;;;;;;5075229;28;51269;-59
2022/08/08 12:43:04;;;;;;;;;3.67;3.67;;;;;;;;5074805;28;51911;-60
2022/08/08 12:45:37;;;;;;;;;3.00;3.00;;;;;;;;5074897;28;51086;-60
2022/08/08 12:48:03;;;;;;;;;6.00;5.33;;;;;;;;5073660;28;51013;-61
2022/08/08 12:50:43;;;;;;;;;3.00;3.00;;;;;;;;5073244;28;51182;-60
2022/08/08 12:53:17;;;;;;;;;4.00;3.67;;;;;;;;5074427;28;52187;-61
2022/08/08 12:56:03;;;;;;;;;5.00;5.00;;;;;;;;5074692;28;50957;-61
2022/08/08 12:58:41;;;;;;;;;1.67;1.67;;;;;;;;5075019;27;50972;-60
2022/08/08 13:01:10;;;;;;;;;3.33;3.33;;;;;;;;5074639;27;51257;-60
2022/08/08 13:03:36;;;;;;;;;5.00;4.33;;;;;;;;5074312;28;52434;-60
2022/08/08 13:06:03;;;;;;;;;4.00;4.00;;;;;;;;5073883;28;51030;-60
2022/08/08 13:08:37;;;;;;;;;3.00;3.00;;;;;;;;5073011;28;51018;-61
2022/08/08 13:11:03;;;;;;;;;2.00;2.00;;;;;;;;5074342;28;50975;-59
2022/08/08 13:13:29;;;;;;;;;3.33;3.00;;;;;;;;5072632;28;52763;-60
2022/08/08 13:16:04;;;;;;;;;4.00;4.00;;;;;;;;5074095;28;51085;-60
2022/08/08 13:18:30;;;;;;;;;3.00;3.00;;;;;;;;5074281;28;50974;-60
2022/08/08 13:20:55;;;;;;;;;5.00;5.00;;;;;;;;5073856;28;50939;-61
2022/08/08 13:23:20;;;;;;;;;5.33;4.33;;;;;;;;5073607;28;51717;-61
2022/08/08 13:25:46;;;;;;;;;4.33;4.00;;;;;;;;5073954;28;51091;-61
2022/08/08 13:28:11;;;;;;;;;5.00;5.00;;;;;;;;5074425;28;50951;-61
2022/08/08 13:30:37;;;;;;;;;3.00;3.00;;;;;;;;5074250;27;50931;-60
2022/08/08 13:33:03;;;;;;;;;4.00;3.67;;;;;;;;5073972;28;51188;-60
2022/08/08 13:35:28;;;;;;;;;4.00;4.00;;;;;;;;5073709;28;51020;-60
2022/08/08 13:37:59;;;;;;;;;3.67;3.67;;;;;;;;5074015;28;51037;-60
2022/08/08 13:40:25;;;;;;;;;3.00;3.00;;;;;;;;5073318;27;51346;-61
2022/08/08 13:42:50;;;;;;;;;2.00;2.00;;;;;;;;5073833;28;51130;-60
2022/08/08 13:45:18;;;;;;;;;4.33;4.33;;;;;;;;5074325;27;51048;-60
2022/08/08 13:47:54;;;;;;;;;4.00;4.00;;;;;;;;5074554;28;51244;-60
2022/08/08 13:50:20;;;;;;;;;2.00;2.00;;;;;;;;5074356;28;51043;-60
2022/08/08 13:52:47;;;;;;;;;3.00;3.00;;;;;;;;5073691;28;51906;-61
2022/08/08 13:55:12;;;;;;;;;3.00;2.00;;;;;;;;5074054;28;51303;-60
2022/08/08 13:57:37;;;;;;;;;7.00;5.00;;;;;;;;5074448;28;51704;-60
2022/08/08 14:00:09;;;;;;;;;5.00;5.00;;;;;;;;5074460;28;51113;-61
2022/08/08 14:02:34;;;;;;;;;3.00;3.00;;;;;;;;5068352;28;52150;-61
2022/08/08 14:05:02;;;;;;;;;3.33;3.33;;;;;;;;5073314;27;51161;-60
2022/08/08 14:07:29;;;;;;;;;4.33;4.33;;;;;;;;5073435;28;51122;-60
2022/08/08 14:10:13;;;;;;;;;3.67;3.67;;;;;;;;5072574;28;51225;-60
2022/08/08 14:12:40;;;;;;;;;3.00;3.00;;;;;;;;5072868;27;51964;-60
2022/08/08 14:15:08;;;;;;;;;3.33;3.33;;;;;;;;5073673;28;50930;-61
2022/08/08 14:17:34;;;;;;;;;5.00;4.33;;;;;;;;5073199;28;50934;-61
2022/08/08 14:20:03;;;;;;;;;4.00;4.00;;;;;;;;5073477;27;50979;-61
2022/08/08 14:22:29;;;;;;;;;3.33;3.33;;;;;;;;5073236;28;51022;-61
2022/08/08 14:24:56;;;;;;;;;4.67;4.67;;;;;;;;5073001;28;50921;-61
2022/08/08 14:27:26;;;;;;;;;4.33;4.33;;;;;;;;5073685;28;51172;-60
2022/08/08 14:29:52;;;;;;;;;4.00;3.67;;;;;;;;5073841;28;50942;-61
2022/08/08 14:32:17;;;;;;;;;5.00;5.00;;;;;;;;5072858;28;52180;-60
2022/08/08 14:34:48;;;;;;;;;4.00;4.00;;;;;;;;5072900;27;50856;-61
2022/08/08 14:37:15;;;;;;;;;4.00;4.00;;;;;;;;5072601;28;51016;-61
2022/08/08 14:39:46;;;;;;;;;3.67;3.33;;;;;;;;5072996;27;51067;-60
2022/08/08 14:42:11;;;;;;;;;5.00;4.50;;;;;;;;5070965;28;53220;-60
2022/08/08 14:44:37;;;;;;;;;4.00;4.00;;;;;;;;5072460;27;50984;-62
2022/08/08 14:47:02;;;;;;;;;4.00;4.00;;;;;;;;5073166;28;51087;-60
2022/08/08 14:49:34;;;;;;;;;4.33;4.33;;;;;;;;5071532;28;51364;-60
2022/08/08 14:52:06;;;;;;;;;4.00;4.00;;;;;;;;5072322;27;51828;-60
2022/08/08 14:54:31;;;;;;;;;3.00;3.00;;;;;;;;5072666;27;51043;-60